Time;durP1;ratioP1;P1;durP2;ratioP2;P2;SDS_P1;SDS_P2;PMS_P1;PMS_P2;Temp;Humidity;BMP_temperature;BMP_pressure;BME280_temperature;BME280_humidity;BME280_pressure;Samples;Min_cycle;Max_cycle;Signal;HPM_P1;HPM_P2
2022/12/24 00:00:19;;;;;;;;;5.00;3.25;;;;;;;;5021575;28;10340;-80
2022/12/24 00:02:46;;;;;;;;;8.25;4.50;;;;;;;;5016433;28;9824;-80
2022/12/24 00:05:13;;;;;;;;;3.50;3.00;;;;;;;;5018586;28;10024;-79
2022/12/24 00:07:41;;;;;;;;;3.75;2.50;;;;;;;;5002755;28;9555;-79
2022/12/24 00:10:09;;;;;;;;;5.50;4.00;;;;;;;;5018779;28;9630;-80
2022/12/24 00:12:37;;;;;;;;;6.50;4.25;;;;;;;;5018401;28;9617;-79
2022/12/24 00:15:08;;;;;;;;;2.50;2.50;;;;;;;;5018629;28;9709;-80
2022/12/24 00:17:35;;;;;;;;;10.50;5.00;;;;;;;;5000533;28;10454;-80
2022/12/24 00:20:03;;;;;;;;;6.00;4.00;;;;;;;;5018065;28;9810;-80
2022/12/24 00:22:31;;;;;;;;;4.00;3.00;;;;;;;;5021040;28;9615;-79
2022/12/24 00:24:58;;;;;;;;;2.50;2.50;;;;;;;;5001980;28;9759;-80
2022/12/24 00:27:26;;;;;;;;;7.50;3.75;;;;;;;;5020103;28;9639;-80
2022/12/24 00:29:53;;;;;;;;;5.00;4.75;;;;;;;;5002536;28;9615;-80
2022/12/24 00:32:22;;;;;;;;;7.75;6.00;;;;;;;;5020390;28;9769;-80
2022/12/24 00:34:50;;;;;;;;;4.75;3.00;;;;;;;;5013914;28;9629;-80
2022/12/24 00:37:20;;;;;;;;;3.50;3.50;;;;;;;;5002144;28;9706;-80
2022/12/24 00:39:47;;;;;;;;;6.00;4.75;;;;;;;;5018990;28;9718;-80
2022/12/24 00:42:14;;;;;;;;;12.50;4.75;;;;;;;;4988510;28;9688;-80
2022/12/24 00:44:42;;;;;;;;;8.75;3.50;;;;;;;;5018337;28;10476;-80
2022/12/24 00:47:10;;;;;;;;;6.00;4.50;;;;;;;;5005920;28;9609;-79
2022/12/24 00:49:39;;;;;;;;;5.00;3.25;;;;;;;;5001366;28;9628;-79
2022/12/24 00:52:06;;;;;;;;;7.00;4.00;;;;;;;;4998192;28;9716;-80
2022/12/24 00:54:34;;;;;;;;;5.00;5.00;;;;;;;;4982216;28;9706;-79
2022/12/24 00:57:02;;;;;;;;;12.50;6.50;;;;;;;;5003329;28;9755;-80
2022/12/24 00:59:29;;;;;;;;;1.00;0.00;;;;;;;;5017315;28;9793;-80
2022/12/24 01:01:56;;;;;;;;;5.75;5.00;;;;;;;;5002780;28;9481;-80
2022/12/24 01:07:10;;;;;;;;;12.00;6.00;;;;;;;;5022243;28;9802;-80
2022/12/24 01:09:38;;;;;;;;;10.50;9.00;;;;;;;;5017996;28;9664;-79
2022/12/24 01:12:06;;;;;;;;;4.25;2.75;;;;;;;;5017084;28;9733;-79
2022/12/24 01:14:34;;;;;;;;;6.25;2.75;;;;;;;;5002219;28;9628;-79
2022/12/24 01:17:02;;;;;;;;;8.00;3.50;;;;;;;;4998029;28;9531;-79
2022/12/24 01:19:29;;;;;;;;;5.00;3.75;;;;;;;;5023349;28;9631;-80
2022/12/24 01:21:56;;;;;;;;;6.25;4.50;;;;;;;;5020238;28;9517;-80
2022/12/24 01:24:25;;;;;;;;;9.50;4.25;;;;;;;;5039015;28;9581;-79
2022/12/24 01:26:53;;;;;;;;;5.50;3.00;;;;;;;;5022641;28;9601;-79
2022/12/24 01:29:20;;;;;;;;;4.00;4.00;;;;;;;;5006754;28;9661;-79
2022/12/24 01:31:49;;;;;;;;;8.00;4.00;;;;;;;;5020841;28;10368;-79
2022/12/24 01:34:16;;;;;;;;;6.00;3.00;;;;;;;;5021432;28;9793;-79
2022/12/24 01:36:44;;;;;;;;;6.50;5.00;;;;;;;;5026639;28;9695;-79
2022/12/24 01:39:12;;;;;;;;;6.00;4.00;;;;;;;;5005512;28;9762;-79
2022/12/24 01:44:30;;;;;;;;;10.00;6.25;;;;;;;;5023195;28;9846;-80
2022/12/24 01:47:03;;;;;;;;;7.50;4.50;;;;;;;;5024415;28;9788;-80
2022/12/24 01:49:31;;;;;;;;;4.50;4.00;;;;;;;;5003438;28;9669;-79
2022/12/24 01:52:03;;;;;;;;;4.25;4.25;;;;;;;;5003693;28;9750;-79
2022/12/24 01:54:33;;;;;;;;;6.75;5.25;;;;;;;;5021492;28;9664;-80
2022/12/24 01:57:07;;;;;;;;;5.00;5.00;;;;;;;;5022341;28;9688;-80
2022/12/24 01:59:35;;;;;;;;;8.50;4.00;;;;;;;;5023103;28;9636;-79
2022/12/24 02:02:03;;;;;;;;;4.25;4.00;;;;;;;;5019703;28;9629;-79
2022/12/24 02:04:36;;;;;;;;;9.00;5.00;;;;;;;;5021353;28;9714;-79
2022/12/24 02:07:04;;;;;;;;;3.00;3.00;;;;;;;;5018491;28;9715;-80
2022/12/24 02:09:33;;;;;;;;;4.00;3.25;;;;;;;;5020205;28;10396;-80
2022/12/24 02:12:02;;;;;;;;;7.00;4.00;;;;;;;;5024302;28;9626;-79
2022/12/24 02:14:31;;;;;;;;;3.75;3.75;;;;;;;;5021361;28;9729;-79
2022/12/24 02:17:02;;;;;;;;;5.75;4.50;;;;;;;;5022020;28;9614;-79
2022/12/24 02:20:12;;;;;;;;;10.25;3.75;;;;;;;;5021655;28;9790;-79
2022/12/24 02:22:54;;;;;;;;;3.00;2.25;;;;;;;;5021578;28;9583;-79
2022/12/24 02:25:38;;;;;;;;;9.00;4.75;;;;;;;;5021962;28;9558;-79
2022/12/24 02:28:17;;;;;;;;;7.25;4.50;;;;;;;;5003020;28;9682;-78
2022/12/24 02:30:52;;;;;;;;;5.75;4.00;;;;;;;;5024528;28;9696;-79
2022/12/24 02:33:27;;;;;;;;;5.25;3.00;;;;;;;;5018816;28;9697;-80
2022/12/24 02:35:59;;;;;;;;;5.00;5.00;;;;;;;;5018165;28;10591;-79
2022/12/24 02:38:29;;;;;;;;;6.50;5.00;;;;;;;;5022425;28;9821;-80
2022/12/24 02:40:59;;;;;;;;;6.00;4.75;;;;;;;;5021902;28;9688;-80
2022/12/24 02:43:32;;;;;;;;;4.00;2.75;;;;;;;;5023972;28;9792;-80
2022/12/24 02:46:05;;;;;;;;;5.75;3.25;;;;;;;;5018657;28;10102;-79
2022/12/24 02:48:33;;;;;;;;;3.75;2.50;;;;;;;;5018915;28;9767;-80
2022/12/24 02:51:05;;;;;;;;;3.75;3.75;;;;;;;;5024527;28;9713;-79
2022/12/24 02:53:33;;;;;;;;;5.00;5.00;;;;;;;;5033128;28;9832;-79
2022/12/24 02:56:23;;;;;;;;;6.25;5.00;;;;;;;;5004463;28;9724;-79
2022/12/24 02:59:19;;;;;;;;;5.75;4.25;;;;;;;;5037341;28;9766;-79
2022/12/24 03:01:57;;;;;;;;;5.25;4.50;;;;;;;;5015615;28;9644;-79
2022/12/24 03:04:39;;;;;;;;;1.25;1.25;;;;;;;;5022789;28;9860;-79
2022/12/24 03:07:12;;;;;;;;;4.50;4.50;;;;;;;;5003162;28;10596;-80
2022/12/24 03:09:57;;;;;;;;;7.25;4.00;;;;;;;;5021677;28;10583;-79
2022/12/24 03:12:29;;;;;;;;;6.00;3.00;;;;;;;;5021290;28;9797;-79
2022/12/24 03:14:57;;;;;;;;;8.25;4.75;;;;;;;;5021717;28;9765;-79
2022/12/24 03:17:26;;;;;;;;;4.75;3.75;;;;;;;;5020196;28;9719;-80
2022/12/24 03:19:55;;;;;;;;;4.50;3.00;;;;;;;;5002392;28;9656;-79
2022/12/24 03:22:23;;;;;;;;;5.50;5.00;;;;;;;;5020104;28;10413;-80
2022/12/24 03:24:51;;;;;;;;;6.00;4.00;;;;;;;;5021268;28;9771;-80
2022/12/24 03:27:18;;;;;;;;;5.00;4.00;;;;;;;;5016870;28;9822;-80
2022/12/24 03:29:47;;;;;;;;;7.00;4.50;;;;;;;;4988987;28;9791;-79
2022/12/24 03:32:14;;;;;;;;;5.00;3.00;;;;;;;;4998326;28;10579;-80
2022/12/24 03:34:43;;;;;;;;;2.00;2.00;;;;;;;;5018589;28;9696;-79
2022/12/24 03:37:10;;;;;;;;;4.25;4.25;;;;;;;;5018598;28;9743;-80
2022/12/24 03:39:37;;;;;;;;;9.25;6.50;;;;;;;;4999748;28;9850;-80
2022/12/24 03:42:06;;;;;;;;;5.00;3.75;;;;;;;;5019929;28;9776;-80
2022/12/24 03:44:33;;;;;;;;;7.50;4.50;;;;;;;;5019534;28;9688;-79
2022/12/24 03:47:01;;;;;;;;;6.25;4.50;;;;;;;;5000700;28;9809;-80
2022/12/24 03:49:28;;;;;;;;;7.00;3.00;;;;;;;;5005539;28;9700;-80
2022/12/24 03:51:58;;;;;;;;;3.25;2.75;;;;;;;;5004434;28;9615;-80
2022/12/24 03:54:25;;;;;;;;;6.75;4.00;;;;;;;;5023246;28;10316;-79
2022/12/24 03:56:52;;;;;;;;;5.00;3.00;;;;;;;;5019516;28;9845;-80
2022/12/24 03:59:20;;;;;;;;;3.00;3.00;;;;;;;;5000956;28;9579;-79
2022/12/24 04:01:47;;;;;;;;;3.00;3.00;;;;;;;;5002307;28;9541;-79
2022/12/24 04:04:15;;;;;;;;;5.50;4.50;;;;;;;;5004225;28;9640;-80
2022/12/24 04:06:42;;;;;;;;;7.00;3.00;;;;;;;;5022789;28;9738;-79
2022/12/24 04:09:11;;;;;;;;;3.75;3.75;;;;;;;;5001942;28;9664;-79
2022/12/24 04:11:39;;;;;;;;;11.25;5.00;;;;;;;;5000263;28;9706;-79
2022/12/24 04:14:06;;;;;;;;;7.25;4.25;;;;;;;;5018482;28;9556;-79
2022/12/24 04:16:34;;;;;;;;;9.75;4.50;;;;;;;;4999977;28;10534;-79
2022/12/24 04:19:01;;;;;;;;;4.00;4.00;;;;;;;;4986932;28;9704;-79
2022/12/24 04:21:29;;;;;;;;;5.25;3.00;;;;;;;;5004989;28;9637;-80
2022/12/24 04:23:56;;;;;;;;;5.00;5.00;;;;;;;;5018411;28;9569;-78
2022/12/24 04:26:25;;;;;;;;;7.00;4.00;;;;;;;;5018141;28;9753;-79
2022/12/24 04:28:54;;;;;;;;;3.25;3.25;;;;;;;;5006133;28;10428;-79
2022/12/24 04:31:21;;;;;;;;;8.25;6.00;;;;;;;;5024536;28;9696;-79
2022/12/24 04:33:50;;;;;;;;;8.25;5.00;;;;;;;;5008062;28;10514;-80
2022/12/24 04:36:19;;;;;;;;;5.25;5.25;;;;;;;;5016880;28;9754;-79
2022/12/24 04:38:46;;;;;;;;;6.00;4.50;;;;;;;;5003588;28;10101;-79
2022/12/24 04:41:16;;;;;;;;;3.25;3.00;;;;;;;;5006604;28;9791;-79
2022/12/24 04:43:45;;;;;;;;;4.25;3.25;;;;;;;;5004874;28;9659;-79
2022/12/24 04:46:16;;;;;;;;;7.25;5.00;;;;;;;;5018498;28;9614;-80
2022/12/24 04:48:44;;;;;;;;;6.25;3.75;;;;;;;;5025146;28;9614;-80
2022/12/24 04:51:12;;;;;;;;;4.25;4.00;;;;;;;;5021132;28;9759;-82
2022/12/24 04:53:40;;;;;;;;;8.75;3.75;;;;;;;;5019943;28;9639;-80
2022/12/24 04:56:09;;;;;;;;;4.75;4.00;;;;;;;;5019537;28;9719;-79
2022/12/24 04:58:37;;;;;;;;;5.25;3.75;;;;;;;;5006408;28;9697;-79
2022/12/24 05:01:06;;;;;;;;;4.00;3.00;;;;;;;;5018313;28;9755;-79
2022/12/24 05:03:34;;;;;;;;;5.75;3.00;;;;;;;;5017705;28;9802;-79
2022/12/24 05:06:02;;;;;;;;;6.50;4.75;;;;;;;;5017427;28;9619;-79
2022/12/24 05:08:29;;;;;;;;;9.25;5.25;;;;;;;;5018825;28;9863;-79
2022/12/24 05:10:58;;;;;;;;;5.00;3.25;;;;;;;;5015931;28;9859;-79
2022/12/24 05:13:25;;;;;;;;;7.25;2.75;;;;;;;;5019630;28;9804;-79
2022/12/24 05:15:53;;;;;;;;;6.00;4.75;;;;;;;;5003541;28;10579;-80
2022/12/24 05:18:22;;;;;;;;;7.00;3.00;;;;;;;;4997527;28;10524;-79
2022/12/24 05:20:50;;;;;;;;;4.50;3.00;;;;;;;;5021593;28;9863;-80
2022/12/24 05:28:54;;;;;;;;;3.75;3.75;;;;;;;;5016524;28;10634;-80
2022/12/24 05:31:21;;;;;;;;;6.50;3.50;;;;;;;;5002553;28;9989;-79
2022/12/24 05:33:50;;;;;;;;;5.00;3.25;;;;;;;;5018259;28;9758;-79
2022/12/24 05:36:18;;;;;;;;;5.50;5.50;;;;;;;;5017494;28;9927;-78
2022/12/24 05:38:46;;;;;;;;;7.50;5.00;;;;;;;;5016849;28;10661;-79
2022/12/24 05:41:13;;;;;;;;;5.50;4.00;;;;;;;;5000918;28;9906;-79
2022/12/24 05:43:42;;;;;;;;;3.75;3.25;;;;;;;;4995351;28;9894;-79
2022/12/24 05:46:15;;;;;;;;;13.00;5.50;;;;;;;;5016844;28;9849;-79
2022/12/24 05:48:42;;;;;;;;;6.75;5.25;;;;;;;;5021462;28;10801;-79
2022/12/24 05:51:13;;;;;;;;;11.25;5.50;;;;;;;;5016830;28;9764;-79
2022/12/24 05:53:41;;;;;;;;;9.25;5.00;;;;;;;;5016005;28;9892;-79
2022/12/24 05:56:11;;;;;;;;;4.75;4.25;;;;;;;;5017067;28;9882;-80
2022/12/24 05:58:39;;;;;;;;;3.50;3.00;;;;;;;;5000167;28;9761;-79
2022/12/24 06:01:06;;;;;;;;;11.00;5.50;;;;;;;;5015908;28;9772;-78
2022/12/24 06:03:34;;;;;;;;;4.50;4.50;;;;;;;;5018308;28;11179;-80
2022/12/24 06:06:05;;;;;;;;;4.50;4.00;;;;;;;;5002497;28;10033;-80
2022/12/24 06:08:35;;;;;;;;;7.00;4.25;;;;;;;;5022665;28;9717;-80
2022/12/24 06:11:05;;;;;;;;;6.25;5.00;;;;;;;;5021384;28;9832;-80
2022/12/24 06:13:32;;;;;;;;;7.00;3.00;;;;;;;;5019905;28;9741;-79
2022/12/24 06:16:02;;;;;;;;;6.00;3.00;;;;;;;;5023047;28;9679;-79
2022/12/24 06:18:30;;;;;;;;;9.50;4.75;;;;;;;;5020342;28;9677;-79
2022/12/24 06:20:58;;;;;;;;;9.75;4.50;;;;;;;;5024662;28;9703;-79
2022/12/24 06:23:26;;;;;;;;;4.00;4.00;;;;;;;;5021395;28;9741;-78
2022/12/24 06:25:56;;;;;;;;;8.50;4.00;;;;;;;;5001295;28;9702;-79
2022/12/24 06:28:24;;;;;;;;;2.75;2.75;;;;;;;;5021975;28;9804;-79
2022/12/24 06:30:52;;;;;;;;;6.75;4.50;;;;;;;;5026286;28;9796;-79
2022/12/24 06:33:20;;;;;;;;;9.25;4.75;;;;;;;;5006305;28;9855;-79
2022/12/24 06:35:48;;;;;;;;;11.75;4.00;;;;;;;;5023715;28;9781;-79
2022/12/24 06:38:16;;;;;;;;;8.25;4.50;;;;;;;;5022604;28;9769;-79
2022/12/24 06:40:47;;;;;;;;;5.75;5.50;;;;;;;;5022855;28;9718;-79
2022/12/24 06:43:16;;;;;;;;;9.50;3.00;;;;;;;;5005672;28;9800;-79
2022/12/24 06:45:47;;;;;;;;;9.25;5.25;;;;;;;;5023271;28;9757;-79
2022/12/24 06:48:15;;;;;;;;;7.00;4.00;;;;;;;;5002904;28;9691;-78
2022/12/24 06:50:42;;;;;;;;;5.50;3.00;;;;;;;;5022467;28;10494;-78
2022/12/24 06:53:10;;;;;;;;;6.50;5.00;;;;;;;;5004222;28;9770;-78
2022/12/24 06:55:38;;;;;;;;;4.75;3.00;;;;;;;;5037664;28;9744;-79
2022/12/24 06:58:05;;;;;;;;;9.25;4.00;;;;;;;;5027746;28;9685;-79
2022/12/24 07:00:34;;;;;;;;;6.00;5.00;;;;;;;;5019719;28;9700;-79
2022/12/24 07:03:01;;;;;;;;;6.00;3.00;;;;;;;;5006904;28;9690;-79
2022/12/24 07:05:29;;;;;;;;;5.25;3.00;;;;;;;;5025421;28;9608;-79
2022/12/24 07:07:57;;;;;;;;;6.50;6.00;;;;;;;;5037133;28;9673;-78
2022/12/24 07:10:25;;;;;;;;;5.75;3.50;;;;;;;;5021654;28;9780;-80
2022/12/24 07:12:52;;;;;;;;;8.75;5.00;;;;;;;;5008765;28;9716;-79
2022/12/24 07:15:20;;;;;;;;;5.50;3.75;;;;;;;;5021150;28;9691;-79
2022/12/24 07:17:49;;;;;;;;;9.00;3.25;;;;;;;;5005218;28;9536;-79
2022/12/24 07:20:16;;;;;;;;;4.75;4.50;;;;;;;;4999138;28;9620;-73
2022/12/24 07:22:44;;;;;;;;;4.00;4.00;;;;;;;;5021293;28;9690;-77
2022/12/24 07:25:12;;;;;;;;;4.75;3.25;;;;;;;;5003086;28;10489;-79
2022/12/24 07:27:40;;;;;;;;;6.00;6.00;;;;;;;;5011523;28;9617;-78
2022/12/24 07:30:08;;;;;;;;;5.00;3.75;;;;;;;;5000827;28;9765;-79
2022/12/24 07:32:36;;;;;;;;;10.00;6.50;;;;;;;;5015574;28;9646;-79
2022/12/24 07:35:06;;;;;;;;;5.75;5.00;;;;;;;;5024898;28;9538;-82
2022/12/24 07:37:33;;;;;;;;;6.00;4.75;;;;;;;;5005316;28;9664;-79
2022/12/24 07:40:01;;;;;;;;;3.50;3.50;;;;;;;;5029530;28;9566;-79
2022/12/24 07:42:28;;;;;;;;;2.00;2.00;;;;;;;;5002340;28;9550;-79
2022/12/24 07:44:56;;;;;;;;;2.50;2.50;;;;;;;;5002831;28;9419;-79
2022/12/24 07:47:23;;;;;;;;;7.25;4.00;;;;;;;;4987723;28;9547;-79
2022/12/24 07:49:51;;;;;;;;;6.50;4.75;;;;;;;;5006856;28;9452;-80
2022/12/24 07:52:19;;;;;;;;;6.00;4.00;;;;;;;;5019783;28;9566;-79
2022/12/24 07:54:47;;;;;;;;;12.00;6.00;;;;;;;;5022351;28;9584;-77
2022/12/24 07:57:14;;;;;;;;;3.75;3.75;;;;;;;;4995311;28;9622;-74
2022/12/24 07:59:41;;;;;;;;;4.00;3.00;;;;;;;;5021470;28;9592;-75
2022/12/24 08:02:10;;;;;;;;;6.50;3.75;;;;;;;;5018598;28;9578;-75
2022/12/24 08:04:38;;;;;;;;;6.00;4.00;;;;;;;;5021626;28;9563;-77
2022/12/24 08:07:05;;;;;;;;;6.50;6.25;;;;;;;;5022576;28;9462;-76
2022/12/24 08:09:37;;;;;;;;;12.75;8.50;;;;;;;;5020613;28;9634;-77
2022/12/24 08:12:05;;;;;;;;;5.50;5.00;;;;;;;;5002030;28;9767;-77
2022/12/24 08:14:33;;;;;;;;;11.75;9.25;;;;;;;;5021458;28;9628;-74
2022/12/24 08:17:00;;;;;;;;;10.25;6.25;;;;;;;;5020034;28;9684;-77
2022/12/24 08:19:27;;;;;;;;;7.50;5.75;;;;;;;;5031012;28;9784;-76
2022/12/24 08:21:55;;;;;;;;;5.67;5.67;;;;;;;;5000575;28;9468;-75
2022/12/24 08:24:23;;;;;;;;;8.00;4.50;;;;;;;;5020615;28;9467;-77
2022/12/24 08:26:51;;;;;;;;;5.50;5.50;;;;;;;;5016766;28;9452;-76
2022/12/24 08:29:19;;;;;;;;;4.50;4.00;;;;;;;;4999785;28;9396;-76
2022/12/24 08:31:46;;;;;;;;;7.75;5.00;;;;;;;;5020561;28;9605;-77
2022/12/24 08:34:14;;;;;;;;;4.50;4.50;;;;;;;;5028032;28;9557;-77
2022/12/24 08:36:41;;;;;;;;;9.00;5.00;;;;;;;;5031621;28;9459;-76
2022/12/24 08:39:08;;;;;;;;;10.50;9.25;;;;;;;;5033413;28;9719;-77
2022/12/24 08:41:36;;;;;;;;;4.50;4.00;;;;;;;;4984501;28;9572;-80
2022/12/24 08:44:05;;;;;;;;;8.25;5.00;;;;;;;;5001145;28;9590;-76
2022/12/24 08:46:32;;;;;;;;;6.25;4.25;;;;;;;;5018632;28;9621;-76
2022/12/24 08:49:00;;;;;;;;;6.50;5.00;;;;;;;;5018246;28;9378;-77
2022/12/24 08:51:27;;;;;;;;;7.50;4.50;;;;;;;;5019925;28;9629;-76
2022/12/24 08:53:55;;;;;;;;;6.00;4.50;;;;;;;;5016715;28;9985;-76
2022/12/24 08:56:22;;;;;;;;;9.25;9.25;;;;;;;;5020583;28;9547;-75
2022/12/24 08:58:49;;;;;;;;;5.25;5.25;;;;;;;;5019928;28;9682;-75
2022/12/24 09:01:20;;;;;;;;;8.00;4.25;;;;;;;;5020296;28;10365;-73
2022/12/24 09:03:48;;;;;;;;;5.50;5.50;;;;;;;;5017800;28;9478;-73
2022/12/24 09:06:16;;;;;;;;;6.33;5.00;;;;;;;;4985587;28;9745;-75
2022/12/24 09:08:43;;;;;;;;;6.67;5.67;;;;;;;;5017565;28;9410;-76
2022/12/24 09:11:12;;;;;;;;;11.33;3.67;;;;;;;;5021492;28;9381;-73
2022/12/24 09:13:40;;;;;;;;;9.33;4.33;;;;;;;;5017166;28;10252;-73
2022/12/24 09:16:07;;;;;;;;;5.00;5.00;;;;;;;;5017356;28;9405;-73
2022/12/24 09:18:37;;;;;;;;;3.67;3.33;;;;;;;;4992935;28;9235;-75
2022/12/24 09:21:06;;;;;;;;;9.33;4.00;;;;;;;;5001536;28;9382;-75
2022/12/24 09:23:38;;;;;;;;;3.00;3.00;;;;;;;;5015613;28;9342;-74
2022/12/24 09:26:06;;;;;;;;;5.67;3.67;;;;;;;;5015517;28;9232;-73
2022/12/24 09:28:34;;;;;;;;;5.00;3.00;;;;;;;;5015320;28;9248;-73
2022/12/24 09:31:02;;;;;;;;;8.33;5.00;;;;;;;;5014838;28;9031;-72
2022/12/24 09:33:32;;;;;;;;;3.67;3.67;;;;;;;;5019303;28;9198;-74
2022/12/24 09:36:00;;;;;;;;;4.67;4.67;;;;;;;;5034985;28;9121;-73
2022/12/24 09:38:28;;;;;;;;;6.00;4.67;;;;;;;;5016940;28;9090;-73
2022/12/24 09:40:56;;;;;;;;;4.67;4.67;;;;;;;;5022992;28;9333;-75
2022/12/24 09:43:25;;;;;;;;;6.67;5.00;;;;;;;;5016528;28;9442;-75
2022/12/24 09:46:04;;;;;;;;;5.00;5.00;;;;;;;;5018580;28;9990;-80
2022/12/24 09:48:34;;;;;;;;;2.67;1.67;;;;;;;;5014237;28;9342;-74
2022/12/24 09:51:06;;;;;;;;;5.00;3.00;;;;;;;;5021334;28;9252;-74
2022/12/24 09:53:40;;;;;;;;;5.33;3.33;;;;;;;;5020631;28;9182;-75
2022/12/24 09:56:13;;;;;;;;;3.00;3.00;;;;;;;;5020792;28;9296;-74
2022/12/24 09:58:43;;;;;;;;;1.67;1.67;;;;;;;;5022269;28;9151;-74
2022/12/24 10:01:13;;;;;;;;;4.00;4.00;;;;;;;;5024307;28;9249;-74
2022/12/24 10:03:41;;;;;;;;;3.00;2.00;;;;;;;;5024232;28;9318;-76
2022/12/24 10:06:14;;;;;;;;;5.33;4.00;;;;;;;;5007279;28;9933;-75
2022/12/24 10:08:55;;;;;;;;;3.67;1.67;;;;;;;;5006477;28;9316;-74
2022/12/24 10:11:26;;;;;;;;;4.67;3.00;;;;;;;;5020679;28;9254;-74
2022/12/24 10:14:05;;;;;;;;;2.33;2.33;;;;;;;;5022308;28;10100;-75
2022/12/24 10:16:40;;;;;;;;;3.00;3.00;;;;;;;;5019548;28;10369;-75
2022/12/24 10:19:16;;;;;;;;;3.00;3.00;;;;;;;;5021627;28;8937;-74
2022/12/24 10:21:54;;;;;;;;;5.00;3.67;;;;;;;;5022842;28;9070;-75
2022/12/24 10:24:24;;;;;;;;;7.67;4.33;;;;;;;;5021030;28;9020;-74
2022/12/24 10:26:56;;;;;;;;;7.25;4.00;;;;;;;;5024573;28;8987;-75
2022/12/24 10:29:27;;;;;;;;;11.00;4.67;;;;;;;;5022052;28;8839;-75
2022/12/24 10:31:58;;;;;;;;;6.00;4.00;;;;;;;;5005122;28;9037;-75
2022/12/24 10:34:30;;;;;;;;;4.50;4.50;;;;;;;;4999169;28;9021;-72
2022/12/24 10:37:03;;;;;;;;;4.00;3.67;;;;;;;;5022028;28;8843;-77
2022/12/24 10:39:30;;;;;;;;;3.67;2.67;;;;;;;;5021123;28;9096;-78
2022/12/24 10:42:00;;;;;;;;;8.50;3.50;;;;;;;;5020545;28;8989;-77
2022/12/24 10:44:30;;;;;;;;;3.67;3.67;;;;;;;;5004626;28;8893;-76
2022/12/24 10:46:58;;;;;;;;;4.67;3.00;;;;;;;;5005675;28;9075;-76
2022/12/24 10:49:32;;;;;;;;;4.00;3.00;;;;;;;;5020170;28;9080;-75
2022/12/24 10:52:07;;;;;;;;;4.33;2.00;;;;;;;;5033320;28;8982;-75
2022/12/24 10:54:38;;;;;;;;;4.67;3.00;;;;;;;;5020890;28;9001;-75
2022/12/24 10:57:07;;;;;;;;;1.67;1.00;;;;;;;;5020056;28;9013;-76
2022/12/24 10:59:43;;;;;;;;;2.00;1.50;;;;;;;;5020683;28;9015;-75
2022/12/24 11:02:26;;;;;;;;;2.33;2.33;;;;;;;;5001280;28;8873;-74
2022/12/24 11:04:54;;;;;;;;;3.25;2.75;;;;;;;;5020438;28;9027;-73
2022/12/24 11:07:24;;;;;;;;;3.00;3.00;;;;;;;;5019370;28;8851;-77
2022/12/24 11:09:56;;;;;;;;;2.67;2.67;;;;;;;;5024768;28;9018;-76
2022/12/24 11:12:26;;;;;;;;;4.00;2.67;;;;;;;;5022707;28;8978;-77
2022/12/24 11:15:01;;;;;;;;;3.67;2.00;;;;;;;;5020937;28;8921;-80
2022/12/24 11:17:28;;;;;;;;;1.00;1.00;;;;;;;;5023957;28;8926;-79
2022/12/24 11:19:57;;;;;;;;;5.25;2.00;;;;;;;;5004167;28;8934;-79
2022/12/24 11:22:28;;;;;;;;;3.00;1.67;;;;;;;;5023896;28;8868;-79
2022/12/24 11:25:02;;;;;;;;;4.33;3.00;;;;;;;;5002937;28;9041;-78
2022/12/24 11:27:33;;;;;;;;;2.00;2.00;;;;;;;;5006494;28;9040;-78
2022/12/24 11:30:22;;;;;;;;;11.00;5.00;;;;;;;;5000667;28;8991;-76
2022/12/24 11:32:51;;;;;;;;;3.33;2.00;;;;;;;;5034365;28;9114;-76
2022/12/24 11:35:21;;;;;;;;;4.00;2.00;;;;;;;;4998629;28;9004;-80
2022/12/24 11:38:10;;;;;;;;;2.75;1.75;;;;;;;;4987339;28;8964;-77
2022/12/24 11:40:39;;;;;;;;;4.67;3.33;;;;;;;;5016465;28;9259;-78
2022/12/24 11:43:07;;;;;;;;;9.67;4.00;;;;;;;;5019916;28;10039;-79
2022/12/24 11:45:35;;;;;;;;;2.00;2.00;;;;;;;;5019298;28;9081;-78
2022/12/24 11:48:02;;;;;;;;;2.00;2.00;;;;;;;;5023171;28;9083;-79
2022/12/24 11:50:32;;;;;;;;;3.33;1.33;;;;;;;;5002653;28;9011;-80
2022/12/24 11:53:05;;;;;;;;;2.00;2.00;;;;;;;;5022956;28;9843;-82
2022/12/24 11:55:42;;;;;;;;;2.67;2.67;;;;;;;;5024004;28;8830;-79
2022/12/24 11:58:22;;;;;;;;;3.67;2.00;;;;;;;;5025348;28;8949;-81
2022/12/24 12:00:51;;;;;;;;;1.00;1.00;;;;;;;;5020621;28;8911;-79
2022/12/24 12:03:29;;;;;;;;;3.33;2.00;;;;;;;;5023723;28;9877;-78
2022/12/24 12:05:57;;;;;;;;;2.67;1.33;;;;;;;;5017860;28;9165;-79
2022/12/24 12:08:32;;;;;;;;;2.00;2.00;;;;;;;;5001215;28;8995;-77
2022/12/24 12:11:00;;;;;;;;;3.33;1.00;;;;;;;;5003475;28;9052;-78
2022/12/24 12:13:32;;;;;;;;;4.33;1.00;;;;;;;;5000358;28;9017;-75
2022/12/24 12:16:08;;;;;;;;;1.33;1.33;;;;;;;;5032099;28;9022;-76
2022/12/24 12:18:38;;;;;;;;;2.67;2.00;;;;;;;;5019543;28;9022;-74
2022/12/24 12:21:10;;;;;;;;;1.67;1.67;;;;;;;;5020478;28;8929;-77
2022/12/24 12:23:42;;;;;;;;;2.33;2.33;;;;;;;;5017376;28;9048;-75
2022/12/24 12:26:15;;;;;;;;;3.00;3.00;;;;;;;;5016829;28;9158;-77
2022/12/24 12:28:47;;;;;;;;;4.33;3.67;;;;;;;;5022981;28;9220;-76
2022/12/24 12:31:21;;;;;;;;;3.00;3.00;;;;;;;;5017144;28;9086;-77
2022/12/24 12:33:51;;;;;;;;;2.00;2.00;;;;;;;;5017810;28;8927;-77
2022/12/24 12:36:26;;;;;;;;;1.25;1.25;;;;;;;;5018430;28;9007;-76
2022/12/24 12:38:54;;;;;;;;;2.33;2.00;;;;;;;;5017450;28;8831;-75
2022/12/24 12:41:35;;;;;;;;;4.00;1.00;;;;;;;;5020511;28;9038;-81
2022/12/24 12:44:27;;;;;;;;;3.75;2.00;;;;;;;;5021284;28;8933;-77
2022/12/24 12:47:05;;;;;;;;;2.00;1.50;;;;;;;;5019402;28;8807;-78
2022/12/24 12:49:41;;;;;;;;;6.00;1.75;;;;;;;;5018997;28;10009;-76
2022/12/24 12:52:16;;;;;;;;;3.00;2.00;;;;;;;;5021288;28;8829;-74
2022/12/24 12:55:01;;;;;;;;;3.00;2.00;;;;;;;;5017621;28;8935;-76
2022/12/24 12:57:33;;;;;;;;;4.33;3.33;;;;;;;;4988578;28;10304;-76
2022/12/24 13:00:05;;;;;;;;;2.75;2.75;;;;;;;;5019236;28;8947;-77
2022/12/24 13:02:52;;;;;;;;;2.00;2.00;;;;;;;;5018942;28;8846;-76
2022/12/24 13:05:46;;;;;;;;;4.00;2.00;;;;;;;;5009040;28;9036;-78
2022/12/24 13:08:52;;;;;;;;;2.75;1.00;;;;;;;;5017939;28;8861;-74
2022/12/24 13:11:42;;;;;;;;;1.00;1.00;;;;;;;;5002585;28;8944;-76
2022/12/24 13:14:28;;;;;;;;;2.50;1.50;;;;;;;;5021518;28;8835;-76
2022/12/24 13:17:27;;;;;;;;;2.67;2.33;;;;;;;;5015884;28;8827;-76
2022/12/24 13:20:20;;;;;;;;;3.25;2.25;;;;;;;;5025158;28;9854;-74
2022/12/24 13:22:54;;;;;;;;;2.00;2.00;;;;;;;;5016484;28;8855;-76
2022/12/24 13:25:24;;;;;;;;;2.00;1.25;;;;;;;;5019858;28;9619;-76
2022/12/24 13:27:53;;;;;;;;;2.67;1.67;;;;;;;;5017189;28;8855;-77
2022/12/24 13:30:38;;;;;;;;;1.00;1.00;;;;;;;;5000192;28;9018;-77
2022/12/24 13:33:09;;;;;;;;;2.00;2.00;;;;;;;;5022317;28;8930;-77
2022/12/24 13:35:55;;;;;;;;;1.67;1.00;;;;;;;;5018173;28;9000;-76
2022/12/24 13:38:34;;;;;;;;;2.33;2.33;;;;;;;;5017687;28;9069;-76
2022/12/24 13:41:39;;;;;;;;;2.00;2.00;;;;;;;;5018465;28;9196;-78
2022/12/24 13:44:33;;;;;;;;;2.00;2.00;;;;;;;;5034226;28;9561;-77
2022/12/24 13:47:04;;;;;;;;;2.00;2.00;;;;;;;;4992762;28;9016;-78
2022/12/24 13:49:34;;;;;;;;;2.00;2.00;;;;;;;;5014309;28;9016;-77
2022/12/24 13:52:18;;;;;;;;;1.67;1.00;;;;;;;;5016262;28;8943;-78
2022/12/24 13:54:49;;;;;;;;;2.00;2.00;;;;;;;;5017272;28;8971;-79
2022/12/24 13:57:41;;;;;;;;;3.00;3.00;;;;;;;;5003387;28;9049;-79
2022/12/24 14:00:32;;;;;;;;;2.00;2.00;;;;;;;;5013270;28;9105;-78
2022/12/24 14:03:04;;;;;;;;;3.00;3.00;;;;;;;;5021933;28;8992;-77
2022/12/24 14:05:34;;;;;;;;;2.00;2.00;;;;;;;;5003114;28;9232;-78
2022/12/24 14:08:03;;;;;;;;;2.00;2.00;;;;;;;;5017120;28;8998;-78
2022/12/24 14:10:37;;;;;;;;;2.00;2.00;;;;;;;;5019615;28;9818;-80
2022/12/24 14:13:08;;;;;;;;;4.00;2.00;;;;;;;;5018472;28;8869;-79
2022/12/24 14:16:01;;;;;;;;;3.67;3.67;;;;;;;;5021865;28;8858;-78
2022/12/24 14:18:30;;;;;;;;;4.00;4.00;;;;;;;;5006500;28;8933;-78
2022/12/24 14:20:58;;;;;;;;;4.00;4.00;;;;;;;;5021502;28;8929;-78
2022/12/24 14:23:34;;;;;;;;;22.75;19.75;;;;;;;;5019294;28;9048;-78
2022/12/24 14:26:02;;;;;;;;;16.33;13.00;;;;;;;;5021541;28;9549;-78
2022/12/24 14:28:35;;;;;;;;;13.00;7.33;;;;;;;;5021369;28;9434;-79
2022/12/24 14:31:11;;;;;;;;;3.33;3.00;;;;;;;;5000071;28;10277;-79
2022/12/24 14:33:39;;;;;;;;;8.33;7.00;;;;;;;;5018139;28;9011;-76
2022/12/24 14:36:07;;;;;;;;;7.00;6.00;;;;;;;;5022096;28;9185;-76
2022/12/24 14:38:34;;;;;;;;;7.00;7.00;;;;;;;;5019809;28;9402;-78
2022/12/24 14:41:08;;;;;;;;;5.00;5.00;;;;;;;;5021546;28;9311;-78
2022/12/24 14:43:50;;;;;;;;;11.33;5.33;;;;;;;;5019327;28;9167;-78
2022/12/24 14:46:25;;;;;;;;;6.00;6.00;;;;;;;;5021350;28;9286;-77
2022/12/24 14:48:56;;;;;;;;;8.67;8.67;;;;;;;;5023444;28;9296;-78
2022/12/24 14:51:30;;;;;;;;;4.00;2.00;;;;;;;;5022130;28;9373;-78
2022/12/24 14:54:32;;;;;;;;;2.00;2.00;;;;;;;;5024513;28;9210;-77
2022/12/24 14:57:20;;;;;;;;;2.00;2.00;;;;;;;;5018532;28;9101;-77
2022/12/24 14:59:50;;;;;;;;;4.33;4.00;;;;;;;;5013411;28;9091;-76
2022/12/24 15:02:46;;;;;;;;;3.00;3.00;;;;;;;;5016950;28;9296;-79
2022/12/24 15:05:17;;;;;;;;;3.00;3.00;;;;;;;;5017433;28;9275;-77
2022/12/24 15:07:47;;;;;;;;;3.67;3.67;;;;;;;;5019879;28;9123;-78
2022/12/24 15:10:30;;;;;;;;;3.00;3.00;;;;;;;;5018096;28;9182;-77
2022/12/24 15:13:06;;;;;;;;;4.00;4.00;;;;;;;;5001384;28;9156;-80
2022/12/24 15:15:34;;;;;;;;;4.00;4.00;;;;;;;;5020466;28;9327;-79
2022/12/24 15:18:04;;;;;;;;;4.00;4.00;;;;;;;;5021704;28;10107;-79
2022/12/24 15:20:32;;;;;;;;;5.33;5.00;;;;;;;;5004051;28;9166;-80
2022/12/24 15:23:00;;;;;;;;;9.67;6.33;;;;;;;;5020149;28;9306;-79
2022/12/24 15:25:29;;;;;;;;;6.00;5.00;;;;;;;;5020753;28;9244;-80
2022/12/24 15:27:57;;;;;;;;;5.00;5.00;;;;;;;;5023281;28;9233;-79
2022/12/24 15:30:27;;;;;;;;;11.75;10.50;;;;;;;;5020396;28;9346;-78